Latest Weather Observations for Orange Airport

IDN60801

Issued at 8:32 pm EDT Tuesday 9 February 2016 (issued every 30 minutes, with the page automatically refreshed every 10 minutes)

About weather observations | Map of weather stations | Latest weather observations for NSW | Other Formats
Station Details ID: 063303 Name: ORANGE AIRPORT AWS Lat: -33.38 Lon: 149.13 Height: 944.65 m
Data from the previous 72 hours. | See also: Recent months at Orange Airport
Date/Time
EDT
Temp
°C
App
Temp
°C
Dew
Point
Rel
Hum
%
Delta-T
°C
Wind Press
QNH
hPa
Press
MSL
hPa
Rain
since 9 am
mm
Dir
 
Spd
km/h
Gust
km/h
Spd
kts
Gust
kts
09/08:00pm 21.4 20.2 14.1 63 4.4 E 13 17 7 9 1020.6 1015.9 0.0
09/07:30pm 23.0 21.7 13.8 56 5.6 ENE 13 17 7 9 1020.2 1015.6 0.0
09/07:00pm 24.7 23.3 13.3 49 6.9 ENE 13 19 7 10 1019.9 1015.3 0.0
09/06:30pm 25.1 24.2 13.6 49 7.0 ENE 11 17 6 9 1019.8 1015.2 0.0
09/06:00pm 24.4 23.5 13.6 51 6.6 E 11 17 6 9 1019.9 1015.3 0.0
09/05:30pm 24.9 24.5 14.1 51 6.6 E 9 11 5 6 1020.0 1015.4 0.0
09/05:00pm 26.7 25.1 13.8 45 7.9 ESE 15 20 8 11 1020.1 1015.5 0.0
09/04:30pm 26.4 25.6 13.9 46 7.7 SSE 11 19 6 10 1020.4 1015.7 0.0
09/04:00pm 26.3 25.1 14.1 47 7.5 SE 13 20 7 11 1020.7 1016.1 0.0
09/03:30pm 25.2 24.8 13.1 47 7.3 SE 7 17 4 9 1021.1 1016.5 0.0
09/03:00pm 24.7 23.7 13.3 49 6.9 SE 11 17 6 9 1021.6 1016.9 0.0
09/02:30pm 25.7 25.6 13.9 48 7.3 SE 7 17 4 9 1022.0 1017.4 0.0
09/02:00pm 25.2 24.7 13.7 49 7.0 S 9 19 5 10 1022.3 1017.7 0.0
09/01:30pm 25.1 24.7 13.0 47 7.3 ESE 7 17 4 9 1022.7 1018.1 0.0
09/01:00pm 24.6 23.2 14.4 53 6.3 ESE 15 22 8 12 1022.9 1018.3 0.0
09/12:30pm 23.7 22.5 12.7 50 6.6 ESE 11 20 6 11 1023.1 1018.5 0.0
09/12:00pm 23.4 22.8 14.7 58 5.4 ENE 11 20 6 11 1023.4 1018.8 0.0
09/11:30am 22.7 21.0 13.5 56 5.6 E 15 24 8 13 1023.5 1019.0 0.0
09/11:00am 21.8 19.6 13.2 58 5.1 E 17 26 9 14 1023.6 1019.1 0.0
09/10:30am 20.9 18.8 13.6 63 4.4 E 17 24 9 13 1023.6 1019.1 0.0
09/10:00am 19.6 17.2 12.6 64 4.1 ENE 17 26 9 14 1023.6 1019.1 0.0
09/09:30am 19.0 16.4 12.0 64 4.1 ENE 17 22 9 12 1023.8 1019.2 0.0
09/09:00am 18.5 16.9 12.9 70 3.3 ENE 13 19 7 10 1023.5 1019.0 0.0
09/08:30am 17.1 15.1 12.8 76 2.5 E 15 24 8 13 1023.2 1018.6 0.0
09/08:00am 16.1 14.5 12.8 81 1.9 E 13 19 7 10 1023.1 1018.5 0.0
09/07:30am 15.0 13.8 12.7 86 1.3 E 11 19 6 10 1022.9 1018.3 0.0
09/07:00am 13.6 12.2 12.2 91 0.8 E 11 22 6 12 1022.7 1018.1 0.0
09/06:30am 12.9 11.0 11.8 93 0.6 E 13 22 7 12 1022.2 1017.6 0.0
09/06:00am 11.8 11.3 10.7 93 0.6 ESE 4 7 2 4 1022.0 1017.4 0.0
09/05:30am 12.2 10.9 11.1 93 0.6 ESE 9 11 5 6 1021.7 1017.1 0.0
09/05:00am 12.7 11.0 11.3 91 0.8 ESE 11 17 6 9 1021.4 1016.8 0.0
09/04:30am 13.3 10.9 11.5 89 1.0 E 15 20 8 11 1021.3 1016.7 0.0
09/04:00am 13.2 10.5 11.6 90 0.9 E 17 20 9 11 1021.2 1016.6 0.0
09/03:30am 13.2 12.1 11.8 91 0.8 E 9 17 5 9 1021.6 1016.9 0.0
09/03:00am 13.7 12.0 12.6 93 0.6 E 13 17 7 9 1021.6 1016.9 0.0
09/02:30am 14.5 13.3 12.9 90 0.9 E 11 17 6 9 1021.7 1017.1 0.0
09/02:00am 13.8 12.5 12.5 92 0.7 ESE 11 15 6 8 1021.7 1017.1 0.0
09/01:30am 13.9 14.6 12.3 90 0.9 CALM 0 4 0 2 1021.9 1017.3 0.0
09/01:00am 14.2 12.5 12.4 89 1.0 SE 13 17 7 9 1022.0 1017.4 0.0
09/12:30am 13.6 11.8 11.0 84 1.4 SE 11 13 6 7 1022.1 1017.5 0.0
09/12:00am 14.5 13.3 11.5 82 1.7 ESE 9 11 5 6 1022.2 1017.6 0.0
 
Date/Time
EDT
Temp
°C
App
Temp
°C
Dew
Point
Rel
Hum
%
Delta-T
°C
Wind Press
QNH
hPa
Press
MSL
hPa
Rain
since 9 am
mm
Dir
 
Spd
km/h
Gust
km/h
Spd
kts
Gust
kts
08/11:30pm 14.5 12.8 11.1 80 1.9 SE 11 13 6 7 1022.4 1017.8 0.0
08/11:00pm 15.3 13.3 10.3 72 2.7 SE 11 13 6 7 1022.5 1017.9 0.0
08/10:30pm 16.6 15.1 10.5 67 3.4 SSE 9 11 5 6 1022.4 1017.8 0.0
08/10:00pm 17.6 16.0 10.2 62 4.1 ENE 9 13 5 7 1022.2 1017.6 0.0
08/09:30pm 17.6 15.4 9.2 58 4.6 E 11 15 6 8 1021.9 1017.3 0.0
08/09:00pm 18.2 15.0 8.5 53 5.2 ESE 15 19 8 10 1021.7 1017.1 0.0
08/08:30pm 18.6 15.6 7.7 49 5.8 ESE 13 17 7 9 1021.3 1016.7 0.0
08/08:00pm 20.7 17.0 6.3 39 7.6 E 15 17 8 9 1021.0 1016.4 0.0
08/07:30pm 23.5 19.5 6.7 34 9.1 ESE 17 22 9 12 1020.7 1016.1 0.0
08/07:00pm 25.7 21.4 3.0 23 11.6 SE 15 19 8 10 1020.1 1015.5 0.0
08/06:30pm 26.4 21.6 0.2 18 12.8 SE 15 20 8 11 1019.9 1015.3 0.0
08/06:00pm 26.9 21.6 2.1 20 12.6 SE 19 26 10 14 1019.8 1015.2 0.0
08/05:30pm 27.2 22.0 3.7 22 12.3 SE 20 30 11 16 1019.9 1015.3 0.0
08/05:00pm 27.4 23.2 5.6 25 11.8 SSE 17 30 9 16 1019.9 1015.3 0.0
08/04:30pm 27.2 23.1 6.0 26 11.5 SSE 17 30 9 16 1020.1 1015.5 0.0
08/04:00pm 27.4 23.5 7.3 28 11.2 SE 17 30 9 16 1020.4 1015.7 0.0
08/03:30pm 26.8 22.3 6.2 27 11.2 SSE 19 28 10 15 1020.6 1015.9 0.0
08/03:00pm 27.4 24.0 7.8 29 11.0 ESE 15 24 8 13 1020.8 1016.2 0.0
08/02:30pm 26.4 23.6 6.9 29 10.7 SSW 11 19 6 10 1021.0 1016.4 0.0
08/02:00pm 26.5 23.6 8.0 31 10.4 SSE 13 17 7 9 1021.4 1016.8 0.0
08/01:30pm 25.7 22.2 5.3 27 10.9 SSE 13 24 7 13 1021.7 1017.1 0.0
08/01:00pm 25.5 21.7 5.7 28 10.6 ESE 15 24 8 13 1021.8 1017.2 0.0
08/12:30pm 25.1 20.3 5.8 29 10.3 SE 20 30 11 16 1022.1 1017.5 0.0
08/12:00pm 24.8 21.0 7.4 33 9.5 SE 17 26 9 14 1022.3 1017.7 0.0
08/11:30am 24.1 19.4 5.0 29 10.0 SE 19 28 10 15 1022.5 1017.9 0.0
08/11:00am 23.5 20.1 7.6 36 8.7 SE 15 22 8 12 1022.5 1017.9 0.0
08/10:30am 22.4 18.4 6.6 36 8.5 ESE 17 20 9 11 1022.7 1018.1 0.0
08/10:00am 21.2 19.0 10.7 51 6.0 E 13 15 7 8 1022.7 1018.1 0.0
08/09:30am 19.6 18.5 11.9 61 4.5 E 9 15 5 8 1022.5 1017.9 0.0
08/09:00am 18.0 16.7 12.5 70 3.2 ESE 11 15 6 8 1022.3 1017.7 0.0
08/08:30am 16.0 15.0 13.3 84 1.6 SE 11 13 6 7 1022.3 1017.7 0.0
08/08:00am 14.2 13.8 13.1 93 0.6 SSE 7 11 4 6 1022.1 1017.5 0.0
08/07:30am 12.4 11.7 11.3 93 0.6 S 6 7 3 4 1021.9 1017.3 0.0
08/07:00am 10.7 9.3 9.6 93 0.6 S 7 9 4 5 1021.6 1016.9 0.0
08/06:51am 10.7 9.3 9.6 93 0.6 S 7 9 4 5 1021.4 1016.8 0.0
08/06:32am 9.8 8.8 8.7 93 0.6 SE 4 9 2 5 1021.1 1016.5 0.0
08/06:30am 10.0 9.0 8.9 93 0.6 SE 4 9 2 5 1021.1 1016.5 0.0
08/06:15am 10.2 10.0 9.1 93 0.6 CALM 0 0 0 0 1021.0 1016.4 0.0
08/06:00am 9.5 8.8 8.4 93 0.6 ESE 2 7 1 4 1020.9 1016.3 0.0
08/05:30am 9.5 6.7 8.4 93 0.6 ESE 13 15 7 8 1020.8 1016.2 0.0
08/05:11am 10.2 8.3 9.1 93 0.6 SE 9 13 5 7 1020.7 1016.1 0.0
08/05:06am 10.4 8.2 9.3 93 0.6 SE 11 13 6 7 1020.8 1016.2 0.0
08/05:00am 10.3 8.1 9.2 93 0.6 SE 11 13 6 7 1020.7 1016.1 0.0
08/04:30am 10.3 9.4 9.2 93 0.6 SSE 4 9 2 5 1020.6 1015.9 0.0
08/04:02am 9.9 9.6 8.8 93 0.6 CALM 0 0 0 0 1020.7 1016.1 0.0
08/04:00am 9.9 9.6 8.8 93 0.6 CALM 0 0 0 0 1020.7 1016.1 0.0
08/03:59am 9.8 9.5 8.7 93 0.6 CALM 0 0 0 0 1020.7 1016.1 0.0
08/03:33am 10.8 10.8 9.7 93 0.6 CALM 0 0 0 0 1020.6 1015.9 0.0
08/03:30am 10.5 10.4 9.4 93 0.6 CALM 0 0 0 0 1020.6 1015.9 0.0
08/03:00am 10.8 10.0 9.7 93 0.6 E 4 7 2 4 1020.8 1016.2 0.0
08/02:30am 11.9 12.2 10.8 93 0.6 CALM 0 0 0 0 1021.0 1016.4 0.0
08/02:00am 12.7 11.5 11.6 93 0.6 ENE 9 11 5 6 1021.2 1016.6 0.0
08/01:30am 12.7 11.9 11.6 93 0.6 E 7 11 4 6 1021.3 1016.7 0.0
08/01:00am 12.7 12.1 11.6 93 0.6 ENE 6 9 3 5 1021.6 1016.9 0.0
08/12:30am 13.6 13.0 12.3 92 0.7 E 7 11 4 6 1021.7 1017.1 0.0
08/12:00am 13.7 12.7 12.3 91 0.8 ESE 9 13 5 7 1021.8 1017.2 0.0
 
Date/Time
EDT
Temp
°C
App
Temp
°C
Dew
Point
Rel
Hum
%
Delta-T
°C
Wind Press
QNH
hPa
Press
MSL
hPa
Rain
since 9 am
mm
Dir
 
Spd
km/h
Gust
km/h
Spd
kts
Gust
kts
07/11:30pm 14.7 14.1 12.4 86 1.3 ESE 7 9 4 5 1021.7 1017.1 0.0
07/11:00pm 15.6 14.4 12.7 83 1.7 E 11 17 6 9 1021.6 1016.9 0.0
07/10:30pm 15.9 14.6 12.5 80 2.0 E 11 13 6 7 1021.2 1016.6 0.0
07/10:00pm 16.6 14.8 12.0 74 2.6 E 13 15 7 8 1021.1 1016.5 0.0
07/09:30pm 17.9 15.0 12.4 70 3.2 ESE 19 26 10 14 1020.6 1015.9 0.0
07/09:00pm 17.9 16.6 12.4 70 3.2 E 11 15 6 8 1020.2 1015.6 0.0
07/08:30pm 18.6 16.7 11.9 65 3.9 E 13 17 7 9 1019.8 1015.2 0.0
07/08:00pm 20.9 19.4 11.8 56 5.3 E 11 15 6 8 1019.4 1014.7 0.0
07/07:30pm 23.1 22.0 11.8 49 6.6 ENE 9 11 5 6 1019.1 1014.5 0.0
07/07:00pm 23.5 22.9 12.2 49 6.7 SE 7 13 4 7 1018.7 1014.0 0.0
07/06:30pm 24.2 22.9 11.2 44 7.6 ESE 9 17 5 9 1018.4 1013.7 0.0
07/06:00pm 24.3 22.7 10.2 41 8.1 E 9 13 5 7 1018.3 1013.6 0.0
07/05:30pm 24.4 23.3 9.9 40 8.3 NE 6 11 3 6 1018.3 1013.6 0.0
07/05:00pm 24.2 22.9 10.1 41 8.1 ESE 7 13 4 7 1018.4 1013.7 0.0
07/04:30pm 24.5 22.2 10.4 41 8.2 SSE 13 24 7 13 1018.4 1013.7 0.0
07/04:00pm 24.3 22.8 10.6 42 7.9 ESE 9 15 5 8 1018.6 1013.9 0.0
07/03:30pm 23.4 21.3 11.1 46 7.2 ESE 13 22 7 12 1018.8 1014.2 0.0
07/03:00pm 23.4 21.3 11.1 46 7.2 ESE 13 22 7 12 1019.0 1014.4 0.0
07/02:30pm 23.6 22.4 10.3 43 7.6 S 7 13 4 7 1019.3 1014.6 0.0
07/02:00pm 22.8 21.1 9.9 44 7.3 SSE 9 19 5 10 1019.4 1014.7 0.0
07/01:30pm 22.1 21.7 12.4 54 5.7 ENE 6 15 3 8 1019.6 1014.9 0.0
07/01:00pm 21.0 20.0 11.1 53 5.7 ENE 7 13 4 7 1019.7 1015.1 0.0
07/12:30pm 20.8 19.4 12.2 58 5.0 NNE 11 20 6 11 1020.2 1015.6 0.0
07/12:00pm 20.8 20.3 12.8 60 4.7 N 7 13 4 7 1020.5 1015.8 0.0
07/11:30am 19.9 17.9 11.4 58 4.9 NE 13 20 7 11 1020.6 1015.9 0.0
07/11:00am 19.3 17.6 12.6 65 3.9 ENE 13 17 7 9 1020.9 1016.3 0.0
07/10:30am 18.5 16.8 12.5 68 3.5 ENE 13 20 7 11 1021.0 1016.4 0.0
07/10:00am 18.0 16.5 12.0 68 3.5 ENE 11 19 6 10 1020.9 1016.3 0.0
07/09:30am 16.8 14.7 11.3 70 3.1 NE 13 19 7 10 1021.0 1016.4 0.0
07/09:00am 16.1 14.7 12.1 77 2.3 NE 11 17 6 9 1020.8 1016.2 0.0
07/08:30am 15.2 13.8 12.2 82 1.7 ENE 11 13 6 7 1020.6 1015.9 0.0
07/08:00am 13.7 13.0 11.9 89 1.0 E 7 11 4 6 1020.4 1015.7 0.0
07/07:30am 11.6 11.8 10.5 93 0.6 CALM 0 0 0 0 1020.1 1015.5 0.0
07/07:00am 9.4 9.0 8.3 93 0.6 CALM 0 0 0 0 1019.8 1015.2 0.0
07/06:30am 9.5 8.0 8.4 93 0.6 NE 6 9 3 5 1019.5 1014.8 0.0
07/06:00am 9.2 7.6 8.1 93 0.6 NE 6 7 3 4 1019.3 1014.6 0.0
07/05:30am 10.3 10.1 9.2 93 0.6 CALM 0 0 0 0 1019.1 1014.5 0.0
07/05:00am 10.0 8.4 8.9 93 0.6 ENE 7 9 4 5 1019.0 1014.4 0.0
07/04:30am 11.2 10.5 10.1 93 0.6 ENE 4 7 2 4 1019.0 1014.4 0.0
07/04:00am 11.6 11.0 10.5 93 0.6 ENE 4 9 2 5 1019.1 1014.5 0.0
07/03:30am 11.3 9.7 10.2 93 0.6 ENE 9 13 5 7 1019.0 1014.4 0.0
07/03:00am 11.3 9.7 10.2 93 0.6 ENE 9 13 5 7 1019.1 1014.5 0.0
07/02:30am 12.0 11.0 10.9 93 0.6 ENE 7 11 4 6 1019.5 1014.8 0.0
07/02:00am 11.3 8.9 10.2 93 0.6 E 13 15 7 8 1019.6 1014.9 0.0
07/01:30am 11.8 10.3 10.7 93 0.6 E 9 13 5 7 1019.8 1015.2 0.0
07/01:00am 11.6 9.7 10.5 93 0.6 E 11 15 6 8 1019.9 1015.3 0.0
07/12:30am 12.2 11.2 11.1 93 0.6 ESE 7 9 4 5 1020.4 1015.7 0.0
07/12:00am 13.3 11.3 11.5 89 1.0 E 13 19 7 10 1020.1 1015.5 0.0
 
Date/Time
EDT
Temp
°C
App
Temp
°C
Dew
Point
Rel
Hum
%
Delta-T
°C
Wind Press
QNH
hPa
Press
MSL
hPa
Rain
since 9 am
mm
Dir
 
Spd
km/h
Gust
km/h
Spd
kts
Gust
kts
06/11:30pm 13.8 10.5 11.5 86 1.3 E 20 26 11 14 1020.1 1015.5 0.0
06/11:00pm 14.2 10.6 11.9 86 1.3 E 22 30 12 16 1020.0 1015.4 0.0
06/10:30pm 14.4 10.5 12.1 86 1.3 E 24 33 13 18 1020.0 1015.4 0.0
06/10:00pm 14.6 11.3 12.8 89 1.0 E 22 30 12 16 1019.7 1015.1 0.0
06/09:30pm 14.9 11.3 13.1 89 1.0 E 24 32 13 17 1019.8 1015.2 0.0
06/09:00pm 15.0 12.5 13.4 90 0.9 E 19 26 10 14 1019.4 1014.7 0.0

Other Formats:

Comma delimited format used in spreadsheet applications
http://www.bom.gov.au/fwo/IDN60801/IDN60801.95726.axf

JavaScript Object Notation format (JSON) in row-major order
http://www.bom.gov.au/fwo/IDN60801/IDN60801.95726.json